Time;durP1;ratioP1;P1;durP2;ratioP2;P2;SDS_P1;SDS_P2;PMS_P1;PMS_P2;Temp;Humidity;BMP_temperature;BMP_pressure;BME280_temperature;BME280_humidity;BME280_pressure;Samples;Min_cycle;Max_cycle;Signal;HPM_P1;HPM_P2
2023/03/02 00:01:07;;;;;;;18.53;11.10;;;;;;;;;;4752210;30;20572;-88
2023/03/02 00:04:45;;;;;;;21.23;11.23;;;;;;;;;;4751997;30;20619;-88
2023/03/02 00:07:49;;;;;;;23.67;11.87;;;;;;;;;;4752346;30;20557;-88
2023/03/02 00:10:56;;;;;;;17.77;11.13;;;;;;;;;;4751720;30;20585;-88
2023/03/02 00:14:00;;;;;;;19.83;11.27;;;;;;;;;;4751683;30;20571;-88
2023/03/02 00:17:06;;;;;;;20.03;11.23;;;;;;;;;;4751567;30;20623;-88
2023/03/02 00:20:11;;;;;;;21.27;11.00;;;;;;;;;;4751620;30;20655;-88
2023/03/02 00:23:15;;;;;;;22.33;11.77;;;;;;;;;;4751468;30;20953;-88
2023/03/02 00:26:19;;;;;;;19.50;11.60;;;;;;;;;;4751314;30;21188;-88
2023/03/02 00:29:24;;;;;;;23.37;11.40;;;;;;;;;;4751509;30;20654;-88
2023/03/02 00:32:27;;;;;;;19.97;11.37;;;;;;;;;;4741512;30;21141;-88
2023/03/02 00:35:39;;;;;;;17.60;11.07;;;;;;;;;;4751185;30;20567;-88
2023/03/02 00:38:44;;;;;;;15.43;10.20;;;;;;;;;;4751344;30;20651;-89
2023/03/02 00:41:48;;;;;;;20.03;10.93;;;;;;;;;;4750805;30;21128;-88
2023/03/02 00:44:52;;;;;;;18.73;10.80;;;;;;;;;;4750961;30;20584;-89
2023/03/02 00:47:56;;;;;;;21.90;11.80;;;;;;;;;;4750824;30;20567;-91
2023/03/02 00:51:00;;;;;;;17.43;11.20;;;;;;;;;;4751348;30;20911;-90
2023/03/02 00:54:04;;;;;;;21.57;11.33;;;;;;;;;;4750540;30;20572;-89
2023/03/02 00:57:09;;;;;;;20.83;11.13;;;;;;;;;;4750491;30;21030;-90
2023/03/02 01:00:13;;;;;;;18.00;10.73;;;;;;;;;;4760590;30;20654;-90
2023/03/02 01:03:17;;;;;;;16.80;10.40;;;;;;;;;;4760520;30;21202;-90
2023/03/02 01:06:21;;;;;;;18.27;11.37;;;;;;;;;;4760457;30;20573;-89
2023/03/02 01:09:27;;;;;;;17.00;10.47;;;;;;;;;;4750471;30;20650;-89
2023/03/02 01:12:31;;;;;;;20.40;10.50;;;;;;;;;;4750096;30;20622;-90
2023/03/02 01:15:35;;;;;;;20.87;11.77;;;;;;;;;;4760545;30;20576;-89
2023/03/02 01:18:40;;;;;;;20.97;11.13;;;;;;;;;;4760467;30;20644;-90
2023/03/02 01:21:43;;;;;;;19.30;11.27;;;;;;;;;;4760155;30;20577;-89
2023/03/02 01:24:48;;;;;;;18.77;11.13;;;;;;;;;;4760476;30;20750;-90
2023/03/02 01:27:53;;;;;;;17.87;10.90;;;;;;;;;;4750188;30;21153;-90
2023/03/02 01:31:00;;;;;;;19.83;11.13;;;;;;;;;;4760284;30;20778;-90
2023/03/02 01:34:04;;;;;;;22.63;11.77;;;;;;;;;;4750138;30;20618;-91
2023/03/02 01:37:08;;;;;;;20.03;11.37;;;;;;;;;;4750287;30;20647;-90
2023/03/02 01:40:13;;;;;;;21.17;11.97;;;;;;;;;;4749933;30;21024;-90
2023/03/02 01:43:18;;;;;;;19.40;11.70;;;;;;;;;;4750132;30;20576;-90
2023/03/02 01:46:27;;;;;;;18.40;10.87;;;;;;;;;;4750015;30;20579;-89
2023/03/02 01:49:36;;;;;;;19.60;11.67;;;;;;;;;;4759697;30;21009;-90
2023/03/02 01:52:41;;;;;;;18.00;11.40;;;;;;;;;;4749958;30;20622;-90
2023/03/02 01:55:46;;;;;;;18.93;10.97;;;;;;;;;;4750144;30;20567;-88
2023/03/02 01:58:55;;;;;;;23.93;11.90;;;;;;;;;;4750290;30;20658;-88
2023/03/02 02:02:03;;;;;;;24.57;14.57;;;;;;;;;;4749930;30;20576;-88
2023/03/02 02:05:10;;;;;;;20.43;11.73;;;;;;;;;;4750248;30;20563;-88
2023/03/02 02:08:14;;;;;;;23.57;12.13;;;;;;;;;;4749485;30;20587;-90
2023/03/02 02:11:18;;;;;;;19.90;12.23;;;;;;;;;;4759779;30;20929;-90
2023/03/02 02:14:27;;;;;;;18.13;11.03;;;;;;;;;;4749740;30;20572;-89
2023/03/02 02:17:32;;;;;;;24.70;11.90;;;;;;;;;;4749500;30;21215;-90
2023/03/02 02:20:40;;;;;;;19.57;11.60;;;;;;;;;;4749741;30;20583;-88
2023/03/02 02:24:11;;;;;;;23.27;12.37;;;;;;;;;;4749656;30;20623;-90
2023/03/02 02:27:16;;;;;;;28.33;13.93;;;;;;;;;;4749356;30;20564;-87
2023/03/02 02:30:21;;;;;;;25.87;14.63;;;;;;;;;;4749783;30;20662;-87
2023/03/02 02:33:26;;;;;;;27.63;15.30;;;;;;;;;;4739909;30;20615;-91
2023/03/02 02:36:36;;;;;;;26.37;14.60;;;;;;;;;;4759409;30;20623;-91
2023/03/02 02:39:47;;;;;;;21.60;13.17;;;;;;;;;;4749332;30;20639;-88
2023/03/02 02:42:52;;;;;;;22.17;12.30;;;;;;;;;;4749798;30;20575;-90
2023/03/02 02:45:58;;;;;;;22.60;12.50;;;;;;;;;;4749380;30;20934;-88
2023/03/02 02:49:09;;;;;;;20.20;12.00;;;;;;;;;;4749422;30;20631;-90
2023/03/02 02:52:17;;;;;;;19.33;11.03;;;;;;;;;;4749527;30;20580;-88
2023/03/02 02:55:22;;;;;;;20.03;11.20;;;;;;;;;;4749474;30;20571;-89
2023/03/02 02:59:13;;;;;;;21.63;11.87;;;;;;;;;;4749487;30;20969;-88
2023/03/02 03:02:29;;;;;;;19.57;11.40;;;;;;;;;;4749494;30;20619;-87
2023/03/02 03:05:34;;;;;;;21.50;11.67;;;;;;;;;;4749330;30;20629;-88
2023/03/02 03:08:44;;;;;;;18.33;10.73;;;;;;;;;;4749148;30;20646;-88
2023/03/02 03:11:58;;;;;;;23.10;12.20;;;;;;;;;;4749303;30;20568;-88
2023/03/02 03:15:04;;;;;;;19.63;10.43;;;;;;;;;;4749796;30;20575;-88
2023/03/02 03:18:08;;;;;;;19.03;11.40;;;;;;;;;;4752481;30;20666;-88
2023/03/02 03:21:12;;;;;;;19.10;10.77;;;;;;;;;;4752618;30;20618;-88
2023/03/02 03:24:17;;;;;;;20.43;11.07;;;;;;;;;;4752667;30;20638;-88
2023/03/02 03:27:21;;;;;;;19.10;11.23;;;;;;;;;;4742981;30;21108;-88
2023/03/02 03:30:25;;;;;;;17.97;10.57;;;;;;;;;;4752382;30;20635;-88
2023/03/02 03:33:30;;;;;;;21.53;10.93;;;;;;;;;;4752284;30;20579;-88
2023/03/02 03:36:34;;;;;;;20.40;11.67;;;;;;;;;;4752344;30;20563;-88
2023/03/02 03:39:40;;;;;;;19.40;11.20;;;;;;;;;;4752591;30;20646;-88
2023/03/02 03:42:45;;;;;;;22.43;12.03;;;;;;;;;;4752241;30;20571;-88
2023/03/02 03:45:50;;;;;;;25.23;11.97;;;;;;;;;;4752556;30;20953;-88
2023/03/02 03:48:56;;;;;;;21.20;11.80;;;;;;;;;;4752488;30;20642;-88
2023/03/02 03:52:01;;;;;;;21.70;11.57;;;;;;;;;;4752293;30;20575;-88
2023/03/02 03:55:05;;;;;;;24.37;11.97;;;;;;;;;;4752094;30;21191;-88
2023/03/02 03:58:10;;;;;;;19.53;11.57;;;;;;;;;;4751992;30;20686;-88
2023/03/02 04:01:15;;;;;;;20.63;10.97;;;;;;;;;;4751985;30;20622;-88
2023/03/02 04:04:31;;;;;;;27.40;12.63;;;;;;;;;;4752024;30;20969;-88
2023/03/02 04:07:38;;;;;;;24.80;12.50;;;;;;;;;;4742383;30;20587;-88
2023/03/02 04:10:42;;;;;;;19.57;10.80;;;;;;;;;;4752058;30;20614;-88
2023/03/02 04:13:47;;;;;;;22.57;11.50;;;;;;;;;;4752185;30;20626;-88
2023/03/02 04:16:52;;;;;;;21.43;11.17;;;;;;;;;;4752152;30;21119;-88
2023/03/02 04:19:58;;;;;;;18.73;10.77;;;;;;;;;;4752303;30;20650;-88
2023/03/02 04:23:03;;;;;;;21.70;10.97;;;;;;;;;;4752081;30;20627;-88
2023/03/02 04:26:07;;;;;;;20.47;11.40;;;;;;;;;;4751053;30;20636;-88
2023/03/02 04:29:12;;;;;;;24.83;11.70;;;;;;;;;;4751586;30;20642;-88
2023/03/02 04:32:18;;;;;;;22.87;11.30;;;;;;;;;;4751883;30;20560;-88
2023/03/02 04:35:27;;;;;;;22.27;11.83;;;;;;;;;;4751654;30;20571;-88
2023/03/02 04:38:31;;;;;;;22.03;11.20;;;;;;;;;;4751340;30;20682;-88
2023/03/02 04:41:36;;;;;;;21.63;12.67;;;;;;;;;;4751650;30;21157;-88
2023/03/02 04:44:40;;;;;;;21.17;12.07;;;;;;;;;;4751725;30;20564;-88
2023/03/02 04:47:44;;;;;;;21.27;11.67;;;;;;;;;;4751524;30;20571;-88
2023/03/02 04:50:49;;;;;;;22.67;11.43;;;;;;;;;;4752176;30;20564;-88
2023/03/02 04:53:56;;;;;;;22.07;12.23;;;;;;;;;;4751391;30;20575;-88
2023/03/02 04:57:00;;;;;;;21.60;11.17;;;;;;;;;;4751451;30;20571;-88
2023/03/02 05:00:08;;;;;;;22.50;12.50;;;;;;;;;;4750935;30;20650;-88
2023/03/02 05:03:13;;;;;;;21.50;11.97;;;;;;;;;;4751354;30;20560;-88
2023/03/02 05:06:17;;;;;;;22.43;11.33;;;;;;;;;;4751747;30;20587;-88
2023/03/02 05:09:26;;;;;;;23.67;12.10;;;;;;;;;;4750765;30;21218;-88
2023/03/02 05:12:30;;;;;;;22.63;11.47;;;;;;;;;;4750803;30;20576;-89
2023/03/02 05:15:38;;;;;;;19.07;11.13;;;;;;;;;;4751222;30;20575;-88
2023/03/02 05:18:42;;;;;;;21.20;12.20;;;;;;;;;;4750556;30;20683;-88
2023/03/02 05:21:46;;;;;;;20.23;11.27;;;;;;;;;;4751119;30;20584;-88
2023/03/02 05:24:50;;;;;;;22.47;11.10;;;;;;;;;;4750761;30;20634;-88
2023/03/02 05:27:55;;;;;;;27.47;12.57;;;;;;;;;;4750985;30;20560;-88
2023/03/02 05:30:59;;;;;;;22.03;11.80;;;;;;;;;;4750954;30;20560;-88
2023/03/02 05:34:06;;;;;;;19.70;11.00;;;;;;;;;;4751079;30;20579;-89
2023/03/02 05:37:10;;;;;;;22.33;12.03;;;;;;;;;;4750061;30;21191;-88
2023/03/02 05:40:17;;;;;;;20.33;11.37;;;;;;;;;;4749736;30;20652;-87
2023/03/02 05:43:22;;;;;;;25.53;12.67;;;;;;;;;;4750138;30;20575;-88
2023/03/02 05:46:27;;;;;;;23.57;11.40;;;;;;;;;;4749828;30;20937;-89
2023/03/02 05:49:31;;;;;;;18.33;11.83;;;;;;;;;;4749853;30;20631;-88
2023/03/02 05:52:35;;;;;;;19.20;10.87;;;;;;;;;;4750150;30;20569;-91
2023/03/02 05:55:39;;;;;;;19.03;11.20;;;;;;;;;;4750350;30;20656;-89
2023/03/02 05:58:43;;;;;;;24.30;11.23;;;;;;;;;;4750393;30;20674;-89
2023/03/02 06:01:48;;;;;;;22.03;10.73;;;;;;;;;;4749882;30;20934;-90
2023/03/02 06:04:52;;;;;;;18.50;10.73;;;;;;;;;;4749766;30;21141;-89
2023/03/02 06:07:56;;;;;;;18.87;11.53;;;;;;;;;;4749693;30;20571;-90
2023/03/02 06:11:00;;;;;;;21.00;10.90;;;;;;;;;;4740456;30;20557;-91
2023/03/02 06:14:04;;;;;;;21.10;11.27;;;;;;;;;;4760452;30;20567;-90
2023/03/02 06:17:09;;;;;;;21.27;11.23;;;;;;;;;;4759969;30;20650;-90
2023/03/02 06:20:14;;;;;;;18.93;10.73;;;;;;;;;;4750003;30;20637;-91
2023/03/02 06:23:18;;;;;;;20.53;12.00;;;;;;;;;;4749713;30;20607;-90
2023/03/02 06:26:22;;;;;;;23.10;13.73;;;;;;;;;;4749938;30;20915;-91
2023/03/02 06:29:27;;;;;;;21.83;14.00;;;;;;;;;;4760084;30;21228;-91
2023/03/02 06:32:33;;;;;;;20.97;11.93;;;;;;;;;;4750407;30;20560;-91
2023/03/02 06:35:37;;;;;;;20.80;12.50;;;;;;;;;;4760325;30;21115;-91
2023/03/02 06:38:41;;;;;;;26.07;11.43;;;;;;;;;;4749990;30;20683;-91
2023/03/02 06:41:45;;;;;;;18.13;10.97;;;;;;;;;;4749380;30;21198;-91
2023/03/02 06:44:50;;;;;;;18.90;11.33;;;;;;;;;;4739564;30;20623;-91
2023/03/02 06:47:54;;;;;;;16.57;10.03;;;;;;;;;;4749721;30;20623;-92
2023/03/02 06:50:59;;;;;;;18.43;11.23;;;;;;;;;;4759708;30;20559;-92
2023/03/02 06:54:05;;;;;;;18.93;10.57;;;;;;;;;;4749775;30;20566;-91
2023/03/02 06:57:10;;;;;;;18.80;9.60;;;;;;;;;;4749676;30;20560;-90
2023/03/02 07:00:16;;;;;;;19.67;11.13;;;;;;;;;;4749427;30;20632;-91
2023/03/02 07:03:20;;;;;;;19.97;10.90;;;;;;;;;;4749538;30;20573;-91
2023/03/02 07:06:24;;;;;;;21.17;10.37;;;;;;;;;;4759545;30;21175;-91
2023/03/02 07:09:29;;;;;;;18.77;10.17;;;;;;;;;;4749434;30;20731;-91
2023/03/02 07:12:34;;;;;;;19.87;9.60;;;;;;;;;;4749417;30;20570;-90
2023/03/02 07:15:39;;;;;;;16.93;8.80;;;;;;;;;;4739846;30;20552;-90
2023/03/02 07:18:43;;;;;;;16.67;9.57;;;;;;;;;;4749326;30;20671;-91
2023/03/02 07:21:47;;;;;;;19.60;10.33;;;;;;;;;;4759659;30;20556;-91
2023/03/02 07:24:51;;;;;;;14.73;8.67;;;;;;;;;;4749113;30;20229;-91
2023/03/02 07:27:55;;;;;;;16.73;9.13;;;;;;;;;;4749341;30;20190;-91
2023/03/02 07:30:59;;;;;;;15.50;9.27;;;;;;;;;;4748914;30;20214;-91
2023/03/02 07:34:03;;;;;;;18.67;9.10;;;;;;;;;;4749303;30;20616;-90
2023/03/02 07:37:08;;;;;;;15.67;9.00;;;;;;;;;;4748831;30;20206;-91
2023/03/02 07:40:12;;;;;;;15.17;9.03;;;;;;;;;;4748983;30;20226;-90
2023/03/02 07:43:17;;;;;;;14.47;8.80;;;;;;;;;;4749060;30;20206;-91
2023/03/02 07:46:21;;;;;;;16.27;8.83;;;;;;;;;;4749264;30;20218;-91
2023/03/02 07:49:25;;;;;;;17.13;8.50;;;;;;;;;;4758966;30;20699;-91
2023/03/02 07:52:30;;;;;;;17.43;9.43;;;;;;;;;;4748940;30;20195;-91
2023/03/02 07:55:34;;;;;;;14.43;7.80;;;;;;;;;;4739146;30;20512;-91
2023/03/02 07:58:38;;;;;;;15.33;8.30;;;;;;;;;;4749271;30;20238;-91
2023/03/02 08:01:42;;;;;;;14.57;7.57;;;;;;;;;;4750653;30;20194;-91
2023/03/02 08:04:47;;;;;;;18.57;8.90;;;;;;;;;;4752249;30;20194;-91
2023/03/02 08:07:52;;;;;;;16.30;8.47;;;;;;;;;;4762883;30;20194;-91
2023/03/02 08:11:12;;;;;;;21.40;9.17;;;;;;;;;;4752472;30;20190;-91
2023/03/02 08:14:16;;;;;;;17.23;7.77;;;;;;;;;;4752679;30;20194;-92
2023/03/02 08:17:21;;;;;;;13.43;7.43;;;;;;;;;;4752322;30;20202;-91
2023/03/02 08:20:25;;;;;;;13.33;7.43;;;;;;;;;;4752133;30;20230;-91
2023/03/02 08:23:29;;;;;;;14.00;8.03;;;;;;;;;;4751958;30;20209;-90
2023/03/02 08:26:32;;;;;;;12.63;7.10;;;;;;;;;;4762516;30;20536;-92
2023/03/02 08:29:36;;;;;;;10.17;6.80;;;;;;;;;;4741665;30;20230;-91
2023/03/02 08:32:41;;;;;;;12.67;6.97;;;;;;;;;;4752432;30;20210;-93
2023/03/02 08:35:54;;;;;;;12.23;7.07;;;;;;;;;;4742364;30;20190;-90
2023/03/02 08:38:58;;;;;;;16.23;7.20;;;;;;;;;;4751247;30;20246;-90
2023/03/02 08:42:03;;;;;;;11.40;7.30;;;;;;;;;;4751381;30;20222;-91
2023/03/02 08:45:08;;;;;;;14.10;6.43;;;;;;;;;;4760831;30;20202;-92
2023/03/02 08:48:13;;;;;;;15.50;6.83;;;;;;;;;;4736821;30;20206;-92
2023/03/02 08:51:20;;;;;;;13.30;6.37;;;;;;;;;;4750781;30;20202;-88
2023/03/02 08:54:25;;;;;;;14.38;7.93;;;;;;;;;;4759417;30;20736;-87
2023/03/02 08:57:29;;;;;;;12.98;8.00;;;;;;;;;;4749030;30;20736;-89
2023/03/02 09:00:33;;;;;;;14.65;7.63;;;;;;;;;;4748141;30;20756;-88
2023/03/02 09:03:38;;;;;;;13.57;7.55;;;;;;;;;;4748999;30;21284;-88
2023/03/02 09:06:43;;;;;;;14.87;6.53;;;;;;;;;;4751708;30;20198;-89
2023/03/02 09:09:47;;;;;;;11.97;6.07;;;;;;;;;;4752298;30;20234;-92
2023/03/02 09:12:52;;;;;;;12.50;6.20;;;;;;;;;;4752668;30;20640;-91
2023/03/02 09:15:56;;;;;;;11.40;6.40;;;;;;;;;;4751796;30;20186;-90
2023/03/02 09:19:00;;;;;;;10.57;5.23;;;;;;;;;;4750718;30;20241;-91
2023/03/02 09:22:04;;;;;;;11.53;5.97;;;;;;;;;;4751078;30;20194;-91
2023/03/02 09:25:08;;;;;;;9.83;5.73;;;;;;;;;;4750777;30;20568;-90
2023/03/02 09:28:12;;;;;;;10.20;5.60;;;;;;;;;;4761035;30;20214;-90
2023/03/02 09:31:16;;;;;;;11.97;6.10;;;;;;;;;;4761399;30;20194;-91
2023/03/02 09:34:21;;;;;;;11.50;5.57;;;;;;;;;;4751183;30;20190;-91
2023/03/02 09:37:26;;;;;;;14.13;6.37;;;;;;;;;;4750826;30;20206;-91
2023/03/02 09:40:36;;;;;;;11.57;6.10;;;;;;;;;;4751259;30;20238;-90
2023/03/02 09:44:14;;;;;;;11.33;6.50;;;;;;;;;;4761577;30;20640;-91
2023/03/02 09:48:00;;;;;;;11.47;6.13;;;;;;;;;;4750973;30;20187;-92
2023/03/02 09:51:39;;;;;;;15.20;6.57;;;;;;;;;;4748720;30;20231;-90
2023/03/02 09:54:44;;;;;;;13.07;6.77;;;;;;;;;;4765731;30;20563;-89
2023/03/02 09:57:49;;;;;;;9.87;5.93;;;;;;;;;;4751307;30;20191;-89
2023/03/02 10:00:53;;;;;;;20.07;6.37;;;;;;;;;;4750622;30;20194;-89
2023/03/02 10:04:34;;;;;;;16.87;6.07;;;;;;;;;;4750603;30;20201;-89
2023/03/02 10:07:39;;;;;;;10.17;5.77;;;;;;;;;;4750537;30;20197;-90
2023/03/02 10:10:47;;;;;;;15.13;6.00;;;;;;;;;;4740258;30;20213;-90
2023/03/02 10:14:07;;;;;;;13.00;6.30;;;;;;;;;;4750714;30;20225;-91
2023/03/02 10:17:51;;;;;;;14.47;6.03;;;;;;;;;;4740723;30;20204;-90
2023/03/02 10:21:02;;;;;;;11.87;5.73;;;;;;;;;;4740276;30;20671;-89
2023/03/02 10:24:38;;;;;;;17.50;6.37;;;;;;;;;;4750372;30;20214;-89
2023/03/02 10:27:49;;;;;;;11.90;5.77;;;;;;;;;;4750403;30;20205;-89
2023/03/02 10:31:09;;;;;;;12.03;5.43;;;;;;;;;;4749871;30;20190;-87
2023/03/02 10:34:15;;;;;;;10.53;5.43;;;;;;;;;;4760221;30;20563;-88
2023/03/02 10:37:27;;;;;;;10.77;5.20;;;;;;;;;;4749820;30;20221;-88
2023/03/02 10:40:42;;;;;;;10.90;4.97;;;;;;;;;;4750166;30;20264;-88
2023/03/02 10:43:51;;;;;;;9.27;5.43;;;;;;;;;;4739622;30;20205;-88
2023/03/02 10:46:56;;;;;;;10.43;5.37;;;;;;;;;;4750073;30;20194;-87
2023/03/02 10:50:00;;;;;;;11.90;5.20;;;;;;;;;;4749668;30;20225;-87
2023/03/02 10:53:18;;;;;;;10.23;6.10;;;;;;;;;;4749383;30;20203;-88
2023/03/02 10:56:22;;;;;;;13.07;5.80;;;;;;;;;;4749560;30;20202;-89
2023/03/02 10:59:42;;;;;;;9.33;5.27;;;;;;;;;;4759739;30;20245;-89
2023/03/02 11:02:56;;;;;;;10.70;5.17;;;;;;;;;;4749495;30;20675;-90
2023/03/02 11:06:18;;;;;;;13.33;4.27;;;;;;;;;;4739313;30;20202;-90
2023/03/02 11:09:22;;;;;;;9.23;5.13;;;;;;;;;;4739269;30;20732;-90
2023/03/02 11:12:28;;;;;;;9.73;5.03;;;;;;;;;;4749668;30;20190;-90
2023/03/02 11:15:31;;;;;;;10.07;5.10;;;;;;;;;;4759530;30;20186;-89
2023/03/02 11:18:40;;;;;;;8.87;5.07;;;;;;;;;;4749531;30;20262;-90
2023/03/02 11:22:10;;;;;;;7.90;4.30;;;;;;;;;;4749521;30;20249;-90
2023/03/02 11:25:25;;;;;;;15.13;4.47;;;;;;;;;;4749314;30;20218;-90
2023/03/02 11:28:39;;;;;;;13.60;4.27;;;;;;;;;;4739584;30;20199;-90
2023/03/02 11:31:58;;;;;;;12.70;4.60;;;;;;;;;;4749496;30;20552;-90
2023/03/02 11:35:11;;;;;;;8.40;4.20;;;;;;;;;;4749430;30;20216;-90
2023/03/02 11:38:24;;;;;;;7.47;4.50;;;;;;;;;;4753019;30;20198;-90
2023/03/02 11:41:32;;;;;;;8.60;4.30;;;;;;;;;;4752768;30;20190;-91
2023/03/02 11:44:36;;;;;;;11.97;4.90;;;;;;;;;;4752961;30;20218;-91
2023/03/02 11:47:48;;;;;;;11.43;4.20;;;;;;;;;;4753107;30;20197;-91
2023/03/02 11:50:52;;;;;;;10.93;4.00;;;;;;;;;;4752671;30;20203;-91
2023/03/02 11:53:59;;;;;;;9.00;4.70;;;;;;;;;;4753339;30;20197;-91
2023/03/02 11:57:03;;;;;;;12.87;5.70;;;;;;;;;;4763266;30;20194;-91
2023/03/02 12:00:20;;;;;;;8.63;4.80;;;;;;;;;;4762736;30;20249;-91
2023/03/02 12:03:31;;;;;;;12.20;4.03;;;;;;;;;;4762965;30;20198;-90
2023/03/02 12:06:40;;;;;;;11.87;4.60;;;;;;;;;;4752851;30;20556;-89
2023/03/02 12:09:56;;;;;;;10.00;4.30;;;;;;;;;;4752899;30;20237;-88
2023/03/02 12:13:19;;;;;;;9.27;4.67;;;;;;;;;;4753229;30;20202;-88
2023/03/02 12:16:37;;;;;;;10.20;4.97;;;;;;;;;;4752591;30;20199;-88
2023/03/02 12:19:44;;;;;;;13.03;5.67;;;;;;;;;;4752640;30;20245;-87
2023/03/02 12:22:48;;;;;;;11.10;4.57;;;;;;;;;;4753990;30;20198;-88
2023/03/02 12:26:03;;;;;;;7.93;4.50;;;;;;;;;;4752324;30;20201;-88
2023/03/02 12:29:07;;;;;;;10.53;4.77;;;;;;;;;;4752101;30;20230;-87
2023/03/02 12:32:18;;;;;;;8.37;3.73;;;;;;;;;;4751869;30;20219;-87
2023/03/02 12:35:23;;;;;;;9.20;4.00;;;;;;;;;;4751708;30;20194;-87
2023/03/02 12:38:35;;;;;;;10.33;3.97;;;;;;;;;;4751966;30;20195;-88
2023/03/02 12:42:19;;;;;;;8.87;4.03;;;;;;;;;;4751606;30;20212;-88
2023/03/02 12:45:23;;;;;;;6.53;3.77;;;;;;;;;;4751704;30;20549;-90
2023/03/02 12:49:03;;;;;;;9.37;4.17;;;;;;;;;;4751271;30;20198;-90
2023/03/02 12:52:33;;;;;;;10.43;4.07;;;;;;;;;;4751906;30;20195;-90
2023/03/02 12:55:37;;;;;;;7.40;3.90;;;;;;;;;;4752016;30;20201;-90
2023/03/02 12:58:49;;;;;;;10.83;4.50;;;;;;;;;;4751769;30;20233;-90
2023/03/02 13:02:53;;;;;;;7.60;3.67;;;;;;;;;;4752102;30;20225;-90
2023/03/02 13:06:12;;;;;;;6.00;3.40;;;;;;;;;;4762412;30;20656;-90
2023/03/02 13:09:19;;;;;;;7.63;3.97;;;;;;;;;;4751878;30;20230;-90
2023/03/02 13:12:26;;;;;;;7.70;3.93;;;;;;;;;;4762361;30;20221;-90
2023/03/02 13:15:31;;;;;;;8.20;3.87;;;;;;;;;;4741629;30;20206;-90
2023/03/02 13:18:38;;;;;;;10.67;3.87;;;;;;;;;;4761253;30;20229;-90
2023/03/02 13:21:42;;;;;;;7.13;3.70;;;;;;;;;;4762040;30;20222;-89
2023/03/02 13:25:02;;;;;;;6.97;3.80;;;;;;;;;;4753157;30;20210;-90
2023/03/02 13:28:22;;;;;;;6.90;3.70;;;;;;;;;;4754571;30;20206;-90
2023/03/02 13:31:26;;;;;;;8.10;3.53;;;;;;;;;;4764018;30;20521;-89
2023/03/02 13:34:47;;;;;;;8.93;4.30;;;;;;;;;;4751240;30;20194;-90
2023/03/02 13:38:05;;;;;;;7.93;3.47;;;;;;;;;;4750978;30;20199;-90
2023/03/02 13:41:24;;;;;;;5.93;4.10;;;;;;;;;;4751283;30;20226;-90
2023/03/02 13:44:31;;;;;;;9.13;4.27;;;;;;;;;;4750980;30;20190;-90
2023/03/02 13:47:42;;;;;;;7.70;4.20;;;;;;;;;;4741146;30;20194;-89
2023/03/02 13:50:58;;;;;;;9.93;3.90;;;;;;;;;;4741399;30;20194;-89
2023/03/02 13:54:10;;;;;;;7.83;3.43;;;;;;;;;;4740906;30;20210;-90
2023/03/02 13:57:26;;;;;;;10.47;4.43;;;;;;;;;;4751416;30;20210;-89
2023/03/02 14:00:34;;;;;;;13.23;4.40;;;;;;;;;;4757228;30;20238;-90
2023/03/02 14:03:38;;;;;;;8.60;3.90;;;;;;;;;;4778802;30;20198;-90
2023/03/02 14:06:43;;;;;;;11.83;4.10;;;;;;;;;;4768832;30;20194;-89
2023/03/02 14:09:48;;;;;;;8.60;4.20;;;;;;;;;;4778761;30;20240;-90
2023/03/02 14:13:06;;;;;;;10.97;4.33;;;;;;;;;;4758306;30;20563;-89
2023/03/02 14:16:15;;;;;;;13.87;4.40;;;;;;;;;;4778391;30;20562;-89
2023/03/02 14:19:20;;;;;;;9.97;5.00;;;;;;;;;;4768109;30;20242;-89
2023/03/02 14:22:26;;;;;;;9.83;4.13;;;;;;;;;;4767946;30;20197;-90
2023/03/02 14:25:42;;;;;;;7.47;4.17;;;;;;;;;;4767933;30;20218;-90
2023/03/02 14:28:46;;;;;;;14.47;5.07;;;;;;;;;;4767944;30;20229;-89
2023/03/02 14:31:56;;;;;;;10.00;4.10;;;;;;;;;;4778022;30;20702;-89
2023/03/02 14:35:00;;;;;;;9.50;4.03;;;;;;;;;;4767889;30;20201;-89
2023/03/02 14:38:04;;;;;;;8.40;3.67;;;;;;;;;;4777669;30;20205;-89
2023/03/02 14:41:17;;;;;;;8.93;4.20;;;;;;;;;;4767555;30;20690;-89
2023/03/02 14:44:24;;;;;;;10.43;3.93;;;;;;;;;;4768530;30;20202;-88
2023/03/02 14:47:29;;;;;;;5.57;3.80;;;;;;;;;;4767950;30;20222;-88
2023/03/02 14:50:38;;;;;;;8.50;4.57;;;;;;;;;;4757148;30;20225;-88
2023/03/02 14:53:42;;;;;;;9.43;4.57;;;;;;;;;;4767512;30;20202;-88
2023/03/02 14:56:46;;;;;;;7.23;4.00;;;;;;;;;;4769104;30;20193;-90
2023/03/02 14:59:52;;;;;;;11.50;3.93;;;;;;;;;;4767166;30;20225;-90
2023/03/02 15:02:57;;;;;;;7.53;3.90;;;;;;;;;;4767342;30;20563;-89
2023/03/02 15:06:00;;;;;;;8.57;3.93;;;;;;;;;;4767499;30;20194;-89
2023/03/02 15:09:05;;;;;;;8.47;3.77;;;;;;;;;;4767189;30;20229;-89
2023/03/02 15:12:09;;;;;;;8.83;4.10;;;;;;;;;;4771180;30;20634;-90
2023/03/02 15:15:14;;;;;;;6.77;3.77;;;;;;;;;;4771205;30;20193;-90
2023/03/02 15:18:18;;;;;;;11.57;4.77;;;;;;;;;;4771172;30;20213;-86
2023/03/02 15:21:23;;;;;;;6.70;4.17;;;;;;;;;;4770693;30;20309;-87
2023/03/02 15:24:27;;;;;;;11.67;4.40;;;;;;;;;;4769901;30;20217;-88
2023/03/02 15:27:32;;;;;;;12.60;4.67;;;;;;;;;;4779579;30;20699;-89
2023/03/02 15:30:37;;;;;;;9.13;4.17;;;;;;;;;;4772899;30;20677;-89
2023/03/02 15:33:44;;;;;;;15.17;4.80;;;;;;;;;;4781846;30;20535;-89
2023/03/02 15:36:48;;;;;;;8.70;4.37;;;;;;;;;;4769623;30;20189;-89
2023/03/02 15:39:54;;;;;;;9.37;4.77;;;;;;;;;;4769218;30;20225;-88
2023/03/02 15:42:58;;;;;;;8.33;4.30;;;;;;;;;;4769407;30;20647;-87
2023/03/02 15:46:03;;;;;;;6.47;3.70;;;;;;;;;;4780001;30;20193;-87
2023/03/02 15:49:08;;;;;;;12.77;4.60;;;;;;;;;;4770417;30;20758;-90
2023/03/02 15:52:12;;;;;;;9.00;4.43;;;;;;;;;;4770280;30;20182;-87
2023/03/02 15:55:17;;;;;;;15.23;6.50;;;;;;;;;;4770536;30;20634;-87
2023/03/02 15:58:21;;;;;;;10.30;4.83;;;;;;;;;;4769892;30;20562;-88
2023/03/02 16:01:25;;;;;;;10.93;4.57;;;;;;;;;;4768970;30;20238;-88
2023/03/02 16:04:31;;;;;;;6.63;3.90;;;;;;;;;;4771204;30;20548;-87
2023/03/02 16:07:36;;;;;;;7.57;3.97;;;;;;;;;;4782884;30;20197;-87
2023/03/02 16:10:41;;;;;;;12.10;4.37;;;;;;;;;;4780321;30;20185;-89
2023/03/02 16:13:45;;;;;;;6.83;4.10;;;;;;;;;;4768905;30;20566;-89
2023/03/02 16:16:50;;;;;;;9.80;3.90;;;;;;;;;;4768964;30;20198;-92
2023/03/02 16:19:55;;;;;;;7.93;3.63;;;;;;;;;;4768903;30;20233;-90
2023/03/02 16:23:01;;;;;;;13.13;4.40;;;;;;;;;;4767928;30;20182;-91
2023/03/02 16:39:02;;;;;;;8.93;4.13;;;;;;;;;;6292518;22;1383059;-91
2023/03/02 16:42:07;;;;;;;11.50;4.60;;;;;;;;;;6304282;22;20153;-89
2023/03/02 16:45:11;;;;;;;7.07;4.07;;;;;;;;;;6304321;22;20487;-89
2023/03/02 16:48:16;;;;;;;10.90;4.20;;;;;;;;;;6293939;22;20161;-84
2023/03/02 16:51:29;;;;;;;9.20;4.07;;;;;;;;;;6293553;22;20502;-90
2023/03/02 16:54:34;;;;;;;7.37;3.87;;;;;;;;;;6305064;22;20149;-91
2023/03/02 16:57:38;;;;;;;9.53;4.73;;;;;;;;;;6321861;22;20183;-91
2023/03/02 17:00:42;;;;;;;10.27;4.67;;;;;;;;;;6304290;22;20256;-89
2023/03/02 17:03:48;;;;;;;9.23;4.77;;;;;;;;;;6294362;22;20498;-88
2023/03/02 17:06:52;;;;;;;9.47;4.63;;;;;;;;;;6304390;22;20153;-90
2023/03/02 17:09:57;;;;;;;14.07;6.03;;;;;;;;;;6296468;22;20185;-88
2023/03/02 17:13:01;;;;;;;11.00;5.20;;;;;;;;;;6322010;22;20149;-89
2023/03/02 17:16:08;;;;;;;12.40;5.17;;;;;;;;;;6307028;22;20145;-92
2023/03/02 17:19:18;;;;;;;31.73;15.80;;;;;;;;;;6335978;22;20189;-91
2023/03/02 17:22:25;;;;;;;30.27;16.10;;;;;;;;;;6321836;22;20145;-91
2023/03/02 17:25:29;;;;;;;25.13;9.77;;;;;;;;;;6303930;22;20181;-91
2023/03/02 17:28:33;;;;;;;20.20;9.80;;;;;;;;;;6301844;22;20654;-91
2023/03/02 17:31:37;;;;;;;17.03;8.73;;;;;;;;;;6304443;22;20153;-90
2023/03/02 17:34:42;;;;;;;16.17;9.07;;;;;;;;;;6303651;22;20145;-90
2023/03/02 17:37:46;;;;;;;15.77;9.07;;;;;;;;;;6310852;22;20173;-91
2023/03/02 17:40:50;;;;;;;17.70;9.57;;;;;;;;;;6297202;22;20153;-89
2023/03/02 17:43:54;;;;;;;20.67;10.10;;;;;;;;;;6296405;22;20153;-90
2023/03/02 17:47:02;;;;;;;20.60;10.40;;;;;;;;;;6331898;22;20146;-90
2023/03/02 17:50:07;;;;;;;17.47;9.30;;;;;;;;;;6304352;22;20503;-92
2023/03/02 17:53:11;;;;;;;18.07;9.40;;;;;;;;;;6297795;22;20154;-89
2023/03/02 17:56:19;;;;;;;15.43;9.03;;;;;;;;;;6296767;22;20456;-90
2023/03/02 17:59:23;;;;;;;16.10;9.37;;;;;;;;;;6291633;22;20185;-90
2023/03/02 18:02:27;;;;;;;17.93;9.13;;;;;;;;;;6296656;22;20153;-88
2023/03/02 18:05:31;;;;;;;15.70;9.40;;;;;;;;;;6297262;22;20181;-88
2023/03/02 18:08:36;;;;;;;18.50;10.17;;;;;;;;;;6312936;22;20527;-91
2023/03/02 18:11:41;;;;;;;20.50;11.17;;;;;;;;;;6297933;22;20158;-91
2023/03/02 18:14:45;;;;;;;21.83;9.93;;;;;;;;;;6288349;22;20169;-89
2023/03/02 18:17:49;;;;;;;25.60;11.43;;;;;;;;;;6304824;22;20618;-89
2023/03/02 18:20:54;;;;;;;23.33;11.40;;;;;;;;;;6286277;22;20165;-89
2023/03/02 18:23:58;;;;;;;23.37;10.73;;;;;;;;;;6296563;22;20464;-89
2023/03/02 18:27:02;;;;;;;20.23;10.80;;;;;;;;;;6313949;22;20591;-89
2023/03/02 18:30:07;;;;;;;20.00;11.23;;;;;;;;;;6305572;22;20185;-89
2023/03/02 18:33:12;;;;;;;19.90;11.23;;;;;;;;;;6296754;22;20154;-91
2023/03/02 18:36:16;;;;;;;18.80;11.47;;;;;;;;;;6296179;22;20150;-91